sensor_id;sensor_type;location;lat;lon;timestamp;pressure;altitude;pressure_sealevel;temperature;humidity
48156;BME280;35568;48.104;11.782;2022-11-04T00:01:36;94434.68;;;11.86;49.48
48156;BME280;35568;48.104;11.782;2022-11-04T00:04:04;94439.52;;;12.05;49.08
48156;BME280;35568;48.104;11.782;2022-11-04T00:06:31;94446.75;;;11.87;48.83
48156;BME280;35568;48.104;11.782;2022-11-04T00:08:58;94451.73;;;12.03;48.96
48156;BME280;35568;48.104;11.782;2022-11-04T00:11:26;94455.58;;;12.00;48.70
48156;BME280;35568;48.104;11.782;2022-11-04T00:13:53;94463.88;;;11.59;49.08
48156;BME280;35568;48.104;11.782;2022-11-04T00:16:20;94468.01;;;11.14;49.14
48156;BME280;35568;48.104;11.782;2022-11-04T00:18:47;94475.74;;;11.63;49.04
48156;BME280;35568;48.104;11.782;2022-11-04T00:21:14;94476.59;;;11.58;48.65
48156;BME280;35568;48.104;11.782;2022-11-04T00:23:41;94488.74;;;11.31;49.18
48156;BME280;35568;48.104;11.782;2022-11-04T00:26:08;94502.18;;;11.19;49.86
48156;BME280;35568;48.104;11.782;2022-11-04T00:28:35;94495.86;;;11.28;49.41
48156;BME280;35568;48.104;11.782;2022-11-04T00:31:03;94493.27;;;11.47;49.34
48156;BME280;35568;48.104;11.782;2022-11-04T00:33:31;94500.49;;;11.78;49.35
48156;BME280;35568;48.104;11.782;2022-11-04T00:35:58;94510.10;;;11.45;49.10
48156;BME280;35568;48.104;11.782;2022-11-04T00:38:24;94508.05;;;11.31;49.19
48156;BME280;35568;48.104;11.782;2022-11-04T00:40:51;94510.62;;;11.66;48.91
48156;BME280;35568;48.104;11.782;2022-11-04T00:43:18;94520.71;;;11.42;48.95
48156;BME280;35568;48.104;11.782;2022-11-04T00:45:45;94526.17;;;11.29;49.50
48156;BME280;35568;48.104;11.782;2022-11-04T00:48:12;94523.02;;;10.96;49.26
48156;BME280;35568;48.104;11.782;2022-11-04T00:50:40;94528.61;;;10.84;49.31
48156;BME280;35568;48.104;11.782;2022-11-04T00:53:08;94525.54;;;11.26;48.93
48156;BME280;35568;48.104;11.782;2022-11-04T00:55:34;94535.05;;;10.91;49.19
48156;BME280;35568;48.104;11.782;2022-11-04T00:58:01;94531.60;;;11.06;49.36
48156;BME280;35568;48.104;11.782;2022-11-04T01:00:28;94546.28;;;10.82;50.28
48156;BME280;35568;48.104;11.782;2022-11-04T01:02:55;94548.41;;;10.94;51.20
48156;BME280;35568;48.104;11.782;2022-11-04T01:05:23;94543.67;;;10.35;51.65
48156;BME280;35568;48.104;11.782;2022-11-04T01:07:50;94555.76;;;9.49;52.87
48156;BME280;35568;48.104;11.782;2022-11-04T01:10:17;94561.14;;;10.41;51.52
48156;BME280;35568;48.104;11.782;2022-11-04T01:12:44;94561.04;;;10.37;52.76
48156;BME280;35568;48.104;11.782;2022-11-04T01:15:11;94566.43;;;10.05;53.38
48156;BME280;35568;48.104;11.782;2022-11-04T01:17:38;94572.63;;;10.02;54.15
48156;BME280;35568;48.104;11.782;2022-11-04T01:20:06;94580.35;;;9.88;54.79
48156;BME280;35568;48.104;11.782;2022-11-04T01:22:33;94583.03;;;9.72;55.17
48156;BME280;35568;48.104;11.782;2022-11-04T01:25:00;94586.33;;;9.68;55.42
48156;BME280;35568;48.104;11.782;2022-11-04T01:27:28;94579.80;;;9.74;55.61
48156;BME280;35568;48.104;11.782;2022-11-04T01:29:55;94580.80;;;9.42;56.33
48156;BME280;35568;48.104;11.782;2022-11-04T01:32:21;94585.58;;;9.60;56.49
48156;BME280;35568;48.104;11.782;2022-11-04T01:34:48;94586.72;;;9.50;56.65
48156;BME280;35568;48.104;11.782;2022-11-04T01:37:15;94578.94;;;9.53;56.81
48156;BME280;35568;48.104;11.782;2022-11-04T01:39:42;94580.98;;;9.20;57.13
48156;BME280;35568;48.104;11.782;2022-11-04T01:42:12;94577.97;;;9.35;56.62
48156;BME280;35568;48.104;11.782;2022-11-04T01:44:56;94572.40;;;9.75;56.89
48156;BME280;35568;48.104;11.782;2022-11-04T01:47:28;94566.94;;;9.79;56.22
48156;BME280;35568;48.104;11.782;2022-11-04T01:50:00;94563.67;;;9.23;56.24
48156;BME280;35568;48.104;11.782;2022-11-04T01:52:32;94556.91;;;9.56;55.82
48156;BME280;35568;48.104;11.782;2022-11-04T01:55:04;94554.89;;;9.26;56.34
48156;BME280;35568;48.104;11.782;2022-11-04T01:57:35;94555.25;;;9.15;56.04
48156;BME280;35568;48.104;11.782;2022-11-04T02:00:08;94557.24;;;9.38;55.93
48156;BME280;35568;48.104;11.782;2022-11-04T02:02:38;94552.93;;;9.64;55.42
48156;BME280;35568;48.104;11.782;2022-11-04T02:05:07;94545.24;;;9.53;55.44
48156;BME280;35568;48.104;11.782;2022-11-04T02:08:23;94532.42;;;9.84;55.33
48156;BME280;35568;48.104;11.782;2022-11-04T02:10:54;94528.17;;;9.42;55.40
48156;BME280;35568;48.104;11.782;2022-11-04T02:13:23;94526.06;;;9.71;54.88
48156;BME280;35568;48.104;11.782;2022-11-04T02:15:57;94522.59;;;9.34;55.09
48156;BME280;35568;48.104;11.782;2022-11-04T02:18:40;94526.21;;;9.58;55.08
48156;BME280;35568;48.104;11.782;2022-11-04T02:21:25;94525.03;;;9.46;55.35
48156;BME280;35568;48.104;11.782;2022-11-04T02:24:17;94532.07;;;9.42;54.88
48156;BME280;35568;48.104;11.782;2022-11-04T02:27:06;94521.26;;;9.58;55.08
48156;BME280;35568;48.104;11.782;2022-11-04T02:29:51;94517.44;;;9.58;54.46
48156;BME280;35568;48.104;11.782;2022-11-04T02:32:26;94514.81;;;9.97;54.39
48156;BME280;35568;48.104;11.782;2022-11-04T02:35:01;94519.32;;;9.36;54.59
48156;BME280;35568;48.104;11.782;2022-11-04T02:37:37;94519.80;;;9.80;54.19
48156;BME280;35568;48.104;11.782;2022-11-04T02:40:17;94518.81;;;9.61;54.04
48156;BME280;35568;48.104;11.782;2022-11-04T02:42:52;94515.21;;;9.33;54.33
48156;BME280;35568;48.104;11.782;2022-11-04T02:45:23;94512.51;;;9.03;54.50
48156;BME280;35568;48.104;11.782;2022-11-04T02:47:54;94517.53;;;9.08;54.50
48156;BME280;35568;48.104;11.782;2022-11-04T02:50:28;94517.30;;;9.41;54.64
48156;BME280;35568;48.104;11.782;2022-11-04T02:53:01;94516.17;;;9.49;54.69
48156;BME280;35568;48.104;11.782;2022-11-04T02:55:35;94521.36;;;9.50;54.46
48156;BME280;35568;48.104;11.782;2022-11-04T02:58:08;94519.84;;;9.73;53.97
48156;BME280;35568;48.104;11.782;2022-11-04T03:00:38;94522.30;;;9.64;53.74
48156;BME280;35568;48.104;11.782;2022-11-04T03:03:11;94521.55;;;9.51;53.57
48156;BME280;35568;48.104;11.782;2022-11-04T03:05:43;94520.38;;;10.20;53.17
48156;BME280;35568;48.104;11.782;2022-11-04T03:08:15;94524.99;;;9.76;53.17
48156;BME280;35568;48.104;11.782;2022-11-04T03:10:46;94522.30;;;9.79;52.89
48156;BME280;35568;48.104;11.782;2022-11-04T03:13:20;94525.13;;;9.88;52.57
48156;BME280;35568;48.104;11.782;2022-11-04T03:15:52;94529.03;;;9.88;52.72
48156;BME280;35568;48.104;11.782;2022-11-04T03:18:27;94530.13;;;9.85;52.68
48156;BME280;35568;48.104;11.782;2022-11-04T03:21:02;94532.70;;;9.70;52.97
48156;BME280;35568;48.104;11.782;2022-11-04T03:23:31;94536.73;;;9.77;53.01
48156;BME280;35568;48.104;11.782;2022-11-04T03:26:07;94538.00;;;9.79;52.69
48156;BME280;35568;48.104;11.782;2022-11-04T03:28:42;94539.72;;;9.48;52.82
48156;BME280;35568;48.104;11.782;2022-11-04T03:31:19;94539.13;;;9.98;52.82
48156;BME280;35568;48.104;11.782;2022-11-04T03:33:50;94533.58;;;9.96;52.34
48156;BME280;35568;48.104;11.782;2022-11-04T03:36:18;94534.51;;;10.00;52.06
48156;BME280;35568;48.104;11.782;2022-11-04T03:38:48;94532.31;;;9.78;51.95
48156;BME280;35568;48.104;11.782;2022-11-04T03:41:17;94531.04;;;10.10;52.11
48156;BME280;35568;48.104;11.782;2022-11-04T03:43:46;94530.90;;;10.07;52.13
48156;BME280;35568;48.104;11.782;2022-11-04T03:46:13;94533.04;;;9.90;52.36
48156;BME280;35568;48.104;11.782;2022-11-04T03:48:40;94535.65;;;10.02;51.94
48156;BME280;35568;48.104;11.782;2022-11-04T03:51:08;94535.64;;;9.97;52.15
48156;BME280;35568;48.104;11.782;2022-11-04T03:53:35;94536.52;;;9.94;52.21
48156;BME280;35568;48.104;11.782;2022-11-04T03:56:16;94536.99;;;10.05;52.30
48156;BME280;35568;48.104;11.782;2022-11-04T03:58:56;94536.82;;;10.11;51.95
48156;BME280;35568;48.104;11.782;2022-11-04T04:03:06;94521.33;;;10.21;51.35
48156;BME280;35568;48.104;11.782;2022-11-04T04:05:39;94516.25;;;9.85;51.51
48156;BME280;35568;48.104;11.782;2022-11-04T04:08:13;94520.25;;;9.92;51.73
48156;BME280;35568;48.104;11.782;2022-11-04T04:10:50;94526.11;;;9.75;52.35
48156;BME280;35568;48.104;11.782;2022-11-04T04:13:24;94523.19;;;10.40;52.39
48156;BME280;35568;48.104;11.782;2022-11-04T04:15:58;94505.33;;;9.72;52.32
48156;BME280;35568;48.104;11.782;2022-11-04T04:18:31;94499.64;;;10.21;52.00
48156;BME280;35568;48.104;11.782;2022-11-04T04:21:02;94508.42;;;10.05;52.30
48156;BME280;35568;48.104;11.782;2022-11-04T04:23:31;94514.27;;;9.69;52.16
48156;BME280;35568;48.104;11.782;2022-11-04T04:26:03;94512.95;;;9.72;52.67
48156;BME280;35568;48.104;11.782;2022-11-04T04:28:31;94509.23;;;9.60;52.78
48156;BME280;35568;48.104;11.782;2022-11-04T04:30:58;94507.53;;;9.46;52.74
48156;BME280;35568;48.104;11.782;2022-11-04T04:33:25;94500.01;;;9.51;52.49
48156;BME280;35568;48.104;11.782;2022-11-04T04:35:55;94493.72;;;9.32;52.89
48156;BME280;35568;48.104;11.782;2022-11-04T04:38:24;94495.11;;;9.32;52.70
48156;BME280;35568;48.104;11.782;2022-11-04T04:40:56;94498.29;;;9.22;52.91
48156;BME280;35568;48.104;11.782;2022-11-04T04:43:26;94511.41;;;9.18;53.01
48156;BME280;35568;48.104;11.782;2022-11-04T04:45:53;94519.55;;;9.20;53.33
48156;BME280;35568;48.104;11.782;2022-11-04T04:48:21;94528.53;;;9.19;53.24
48156;BME280;35568;48.104;11.782;2022-11-04T04:50:50;94532.26;;;9.34;53.37
48156;BME280;35568;48.104;11.782;2022-11-04T04:53:18;94532.94;;;9.32;53.27
48156;BME280;35568;48.104;11.782;2022-11-04T04:55:44;94532.27;;;8.84;53.31
48156;BME280;35568;48.104;11.782;2022-11-04T04:58:11;94527.04;;;8.92;53.33
48156;BME280;35568;48.104;11.782;2022-11-04T05:00:38;94526.68;;;9.32;52.76
48156;BME280;35568;48.104;11.782;2022-11-04T05:03:05;94521.60;;;9.02;52.98
48156;BME280;35568;48.104;11.782;2022-11-04T05:05:32;94523.06;;;9.20;53.17
48156;BME280;35568;48.104;11.782;2022-11-04T05:08:03;94525.04;;;9.46;53.12
48156;BME280;35568;48.104;11.782;2022-11-04T05:10:30;94530.73;;;9.15;53.42
48156;BME280;35568;48.104;11.782;2022-11-04T05:12:58;94540.04;;;8.95;53.74
48156;BME280;35568;48.104;11.782;2022-11-04T05:15:26;94545.90;;;8.88;53.70
48156;BME280;35568;48.104;11.782;2022-11-04T05:17:53;94536.14;;;9.51;53.32
48156;BME280;35568;48.104;11.782;2022-11-04T05:20:20;94528.94;;;9.11;53.07
48156;BME280;35568;48.104;11.782;2022-11-04T05:22:47;94526.80;;;9.29;53.16
48156;BME280;35568;48.104;11.782;2022-11-04T05:25:14;94521.93;;;9.46;52.45
48156;BME280;35568;48.104;11.782;2022-11-04T05:27:41;94517.51;;;9.63;52.54
48156;BME280;35568;48.104;11.782;2022-11-04T05:30:09;94514.04;;;9.64;52.20
48156;BME280;35568;48.104;11.782;2022-11-04T05:32:36;94513.36;;;9.19;52.56
48156;BME280;35568;48.104;11.782;2022-11-04T05:35:03;94517.33;;;9.22;52.58
48156;BME280;35568;48.104;11.782;2022-11-04T05:37:30;94520.38;;;8.88;52.97
48156;BME280;35568;48.104;11.782;2022-11-04T05:39:57;94528.55;;;9.35;53.23
48156;BME280;35568;48.104;11.782;2022-11-04T05:42:24;94534.40;;;9.07;53.02
48156;BME280;35568;48.104;11.782;2022-11-04T05:44:52;94537.03;;;9.45;53.19
48156;BME280;35568;48.104;11.782;2022-11-04T05:47:19;94538.50;;;9.16;53.28
48156;BME280;35568;48.104;11.782;2022-11-04T05:49:45;94537.28;;;9.18;53.21
48156;BME280;35568;48.104;11.782;2022-11-04T05:52:12;94529.15;;;9.29;52.98
48156;BME280;35568;48.104;11.782;2022-11-04T05:54:39;94525.38;;;9.36;53.36
48156;BME280;35568;48.104;11.782;2022-11-04T05:57:07;94534.24;;;9.11;52.79
48156;BME280;35568;48.104;11.782;2022-11-04T05:59:34;94529.58;;;9.24;53.18
48156;BME280;35568;48.104;11.782;2022-11-04T06:02:01;94522.31;;;8.98;53.05
48156;BME280;35568;48.104;11.782;2022-11-04T06:04:28;94533.12;;;9.05;52.87
48156;BME280;35568;48.104;11.782;2022-11-04T06:06:55;94538.45;;;9.17;53.19
48156;BME280;35568;48.104;11.782;2022-11-04T06:09:22;94545.55;;;9.09;53.14
48156;BME280;35568;48.104;11.782;2022-11-04T06:11:49;94546.48;;;9.10;53.33
48156;BME280;35568;48.104;11.782;2022-11-04T06:14:15;94550.24;;;8.73;53.18
48156;BME280;35568;48.104;11.782;2022-11-04T06:16:42;94549.94;;;8.66;53.34
48156;BME280;35568;48.104;11.782;2022-11-04T06:19:09;94559.14;;;8.60;53.73
48156;BME280;35568;48.104;11.782;2022-11-04T06:21:36;94569.90;;;8.46;54.40
48156;BME280;35568;48.104;11.782;2022-11-04T06:24:03;94570.84;;;8.53;54.35
48156;BME280;35568;48.104;11.782;2022-11-04T06:26:30;94562.67;;;8.56;54.07
48156;BME280;35568;48.104;11.782;2022-11-04T06:28:57;94556.87;;;9.14;53.55
48156;BME280;35568;48.104;11.782;2022-11-04T06:31:24;94550.29;;;9.45;53.69
48156;BME280;35568;48.104;11.782;2022-11-04T06:33:52;94544.77;;;8.90;53.57
48156;BME280;35568;48.104;11.782;2022-11-04T06:36:18;94539.83;;;9.10;53.63
48156;BME280;35568;48.104;11.782;2022-11-04T06:38:45;94544.99;;;9.01;53.33
48156;BME280;35568;48.104;11.782;2022-11-04T06:41:14;94550.33;;;8.76;53.95
48156;BME280;35568;48.104;11.782;2022-11-04T06:43:42;94557.36;;;8.61;54.00
48156;BME280;35568;48.104;11.782;2022-11-04T06:46:24;94568.10;;;8.69;54.69
48156;BME280;35568;48.104;11.782;2022-11-04T06:48:52;94575.47;;;8.82;54.32
48156;BME280;35568;48.104;11.782;2022-11-04T06:51:18;94580.90;;;8.75;54.75
48156;BME280;35568;48.104;11.782;2022-11-04T06:53:45;94574.25;;;8.60;54.70
48156;BME280;35568;48.104;11.782;2022-11-04T06:56:12;94549.03;;;8.45;54.86
48156;BME280;35568;48.104;11.782;2022-11-04T06:58:39;94529.87;;;8.62;55.01
48156;BME280;35568;48.104;11.782;2022-11-04T07:01:06;94524.26;;;8.86;54.80
48156;BME280;35568;48.104;11.782;2022-11-04T07:03:32;94528.45;;;8.65;55.02
48156;BME280;35568;48.104;11.782;2022-11-04T07:06:04;94536.95;;;8.68;55.26
48156;BME280;35568;48.104;11.782;2022-11-04T07:08:31;94551.80;;;8.75;54.85
48156;BME280;35568;48.104;11.782;2022-11-04T07:10:58;94560.01;;;8.63;55.15
48156;BME280;35568;48.104;11.782;2022-11-04T07:13:26;94566.30;;;8.70;55.39
48156;BME280;35568;48.104;11.782;2022-11-04T07:15:53;94576.35;;;8.73;55.15
48156;BME280;35568;48.104;11.782;2022-11-04T07:18:19;94590.03;;;8.72;55.30
48156;BME280;35568;48.104;11.782;2022-11-04T07:20:46;94594.22;;;8.64;55.34
48156;BME280;35568;48.104;11.782;2022-11-04T07:23:13;94588.25;;;8.58;55.64
48156;BME280;35568;48.104;11.782;2022-11-04T07:25:41;94588.91;;;8.78;56.00
48156;BME280;35568;48.104;11.782;2022-11-04T07:28:09;94589.56;;;8.86;55.41
48156;BME280;35568;48.104;11.782;2022-11-04T07:30:36;94603.44;;;8.82;55.65
48156;BME280;35568;48.104;11.782;2022-11-04T07:33:03;94617.96;;;8.99;55.40
48156;BME280;35568;48.104;11.782;2022-11-04T07:35:32;94634.83;;;9.07;55.30
48156;BME280;35568;48.104;11.782;2022-11-04T07:37:58;94640.56;;;8.96;55.57
48156;BME280;35568;48.104;11.782;2022-11-04T07:40:25;94636.00;;;8.85;55.73
48156;BME280;35568;48.104;11.782;2022-11-04T07:42:54;94629.46;;;9.27;55.21
48156;BME280;35568;48.104;11.782;2022-11-04T07:45:21;94633.01;;;9.32;54.84
48156;BME280;35568;48.104;11.782;2022-11-04T07:47:47;94643.27;;;9.26;54.97
48156;BME280;35568;48.104;11.782;2022-11-04T07:50:14;94645.27;;;9.25;55.08
48156;BME280;35568;48.104;11.782;2022-11-04T07:52:41;94649.50;;;9.19;55.22
48156;BME280;35568;48.104;11.782;2022-11-04T07:55:08;94655.50;;;8.89;55.82
48156;BME280;35568;48.104;11.782;2022-11-04T07:57:36;94657.97;;;8.53;56.01
48156;BME280;35568;48.104;11.782;2022-11-04T08:00:03;94653.99;;;9.09;55.67
48156;BME280;35568;48.104;11.782;2022-11-04T08:02:30;94638.74;;;9.08;55.66
48156;BME280;35568;48.104;11.782;2022-11-04T08:04:58;94626.88;;;9.20;55.57
48156;BME280;35568;48.104;11.782;2022-11-04T08:07:25;94615.70;;;9.12;55.51
48156;BME280;35568;48.104;11.782;2022-11-04T08:09:52;94609.63;;;9.14;55.55
48156;BME280;35568;48.104;11.782;2022-11-04T08:12:18;94617.04;;;9.17;55.42
48156;BME280;35568;48.104;11.782;2022-11-04T08:14:45;94620.10;;;8.95;55.68
48156;BME280;35568;48.104;11.782;2022-11-04T08:17:12;94607.56;;;8.76;55.75
48156;BME280;35568;48.104;11.782;2022-11-04T08:19:39;94603.33;;;9.14;55.69
48156;BME280;35568;48.104;11.782;2022-11-04T08:22:06;94601.42;;;9.08;55.48
48156;BME280;35568;48.104;11.782;2022-11-04T08:24:33;94585.92;;;9.23;55.21
48156;BME280;35568;48.104;11.782;2022-11-04T08:27:00;94572.22;;;9.21;54.99
48156;BME280;35568;48.104;11.782;2022-11-04T08:29:26;94580.01;;;8.97;55.10
48156;BME280;35568;48.104;11.782;2022-11-04T08:31:53;94585.75;;;8.94;55.56
48156;BME280;35568;48.104;11.782;2022-11-04T08:34:20;94580.96;;;8.82;55.67
48156;BME280;35568;48.104;11.782;2022-11-04T08:36:47;94588.72;;;8.55;55.98
48156;BME280;35568;48.104;11.782;2022-11-04T08:39:14;94595.72;;;8.67;56.18
48156;BME280;35568;48.104;11.782;2022-11-04T08:41:41;94589.31;;;8.82;56.09
48156;BME280;35568;48.104;11.782;2022-11-04T08:44:10;94580.74;;;8.93;55.37
48156;BME280;35568;48.104;11.782;2022-11-04T08:46:38;94568.01;;;8.79;55.76
48156;BME280;35568;48.104;11.782;2022-11-04T08:49:06;94559.05;;;9.09;55.27
48156;BME280;35568;48.104;11.782;2022-11-04T08:51:34;94554.56;;;9.43;54.65
48156;BME280;35568;48.104;11.782;2022-11-04T08:54:02;94559.17;;;9.61;54.49
48156;BME280;35568;48.104;11.782;2022-11-04T08:56:32;94562.43;;;9.33;54.27
48156;BME280;35568;48.104;11.782;2022-11-04T08:59:00;94559.80;;;9.33;54.18
48156;BME280;35568;48.104;11.782;2022-11-04T09:01:29;94561.40;;;9.35;53.82
48156;BME280;35568;48.104;11.782;2022-11-04T09:03:57;94556.28;;;8.58;54.95
48156;BME280;35568;48.104;11.782;2022-11-04T09:06:26;94543.05;;;8.80;54.55
48156;BME280;35568;48.104;11.782;2022-11-04T09:08:54;94532.91;;;9.04;54.49
48156;BME280;35568;48.104;11.782;2022-11-04T09:11:21;94525.73;;;8.64;54.55
48156;BME280;35568;48.104;11.782;2022-11-04T09:13:48;94527.67;;;8.69;54.95
48156;BME280;35568;48.104;11.782;2022-11-04T09:16:15;94528.51;;;8.86;54.56
48156;BME280;35568;48.104;11.782;2022-11-04T09:18:42;94532.17;;;8.69;54.85
48156;BME280;35568;48.104;11.782;2022-11-04T09:21:10;94539.51;;;8.93;55.09
48156;BME280;35568;48.104;11.782;2022-11-04T09:23:38;94538.45;;;9.04;54.56
48156;BME280;35568;48.104;11.782;2022-11-04T09:26:07;94527.73;;;9.36;54.11
48156;BME280;35568;48.104;11.782;2022-11-04T09:28:35;94528.40;;;9.38;54.53
48156;BME280;35568;48.104;11.782;2022-11-04T09:31:05;94530.11;;;9.28;54.92
48156;BME280;35568;48.104;11.782;2022-11-04T09:33:33;94527.91;;;8.93;54.68
48156;BME280;35568;48.104;11.782;2022-11-04T09:36:00;94528.95;;;9.30;54.31
48156;BME280;35568;48.104;11.782;2022-11-04T09:38:28;94536.60;;;9.09;54.59
48156;BME280;35568;48.104;11.782;2022-11-04T09:40:55;94535.36;;;8.43;54.69
48156;BME280;35568;48.104;11.782;2022-11-04T09:43:34;94532.79;;;8.82;54.89
48156;BME280;35568;48.104;11.782;2022-11-04T09:46:02;94530.37;;;8.94;54.97
48156;BME280;35568;48.104;11.782;2022-11-04T09:48:32;94530.55;;;8.36;55.61
48156;BME280;35568;48.104;11.782;2022-11-04T09:51:02;94534.71;;;8.42;55.79
48156;BME280;35568;48.104;11.782;2022-11-04T09:53:37;94532.04;;;8.60;55.84
48156;BME280;35568;48.104;11.782;2022-11-04T09:56:14;94526.04;;;8.72;55.48
48156;BME280;35568;48.104;11.782;2022-11-04T09:58:43;94530.88;;;8.72;55.76
48156;BME280;35568;48.104;11.782;2022-11-04T10:01:18;94536.25;;;8.70;55.75
48156;BME280;35568;48.104;11.782;2022-11-04T10:03:57;94530.78;;;8.82;55.53
48156;BME280;35568;48.104;11.782;2022-11-04T10:06:32;94525.22;;;8.90;55.51
48156;BME280;35568;48.104;11.782;2022-11-04T10:09:09;94525.71;;;9.29;55.08
48156;BME280;35568;48.104;11.782;2022-11-04T10:11:45;94527.46;;;8.71;54.87
48156;BME280;35568;48.104;11.782;2022-11-04T10:14:26;94534.64;;;9.22;54.82
48156;BME280;35568;48.104;11.782;2022-11-04T10:17:07;94534.08;;;8.81;55.08
48156;BME280;35568;48.104;11.782;2022-11-04T10:19:48;94542.56;;;9.32;55.10
48156;BME280;35568;48.104;11.782;2022-11-04T10:22:26;94550.02;;;8.94;55.60
48156;BME280;35568;48.104;11.782;2022-11-04T10:25:02;94542.13;;;8.86;56.17
48156;BME280;35568;48.104;11.782;2022-11-04T10:27:33;94538.23;;;8.99;55.87
48156;BME280;35568;48.104;11.782;2022-11-04T10:30:03;94530.85;;;9.25;55.16
48156;BME280;35568;48.104;11.782;2022-11-04T10:32:37;94524.88;;;9.15;55.30
48156;BME280;35568;48.104;11.782;2022-11-04T10:35:17;94513.93;;;8.55;55.64
48156;BME280;35568;48.104;11.782;2022-11-04T10:37:51;94503.25;;;8.44;56.07
48156;BME280;35568;48.104;11.782;2022-11-04T10:40:23;94494.79;;;8.29;55.43
48156;BME280;35568;48.104;11.782;2022-11-04T10:42:51;94483.46;;;8.32;55.33
48156;BME280;35568;48.104;11.782;2022-11-04T10:45:20;94481.88;;;8.31;54.41
48156;BME280;35568;48.104;11.782;2022-11-04T10:47:54;94484.22;;;8.30;54.30
48156;BME280;35568;48.104;11.782;2022-11-04T10:50:27;94489.37;;;8.04;54.85
48156;BME280;35568;48.104;11.782;2022-11-04T10:53:08;94482.73;;;8.33;55.31
48156;BME280;35568;48.104;11.782;2022-11-04T10:55:40;94481.11;;;8.78;54.36
48156;BME280;35568;48.104;11.782;2022-11-04T10:58:16;94476.14;;;8.93;54.37
48156;BME280;35568;48.104;11.782;2022-11-04T11:00:44;94477.31;;;8.81;54.49
48156;BME280;35568;48.104;11.782;2022-11-04T11:03:25;94475.76;;;8.98;54.61
48156;BME280;35568;48.104;11.782;2022-11-04T11:05:53;94478.72;;;9.08;54.63
48156;BME280;35568;48.104;11.782;2022-11-04T11:08:35;94482.19;;;9.20;54.64
48156;BME280;35568;48.104;11.782;2022-11-04T11:11:03;94488.32;;;9.15;54.28
48156;BME280;35568;48.104;11.782;2022-11-04T11:13:35;94490.20;;;9.15;54.90
48156;BME280;35568;48.104;11.782;2022-11-04T11:16:07;94490.08;;;8.89;55.36
48156;BME280;35568;48.104;11.782;2022-11-04T11:18:34;94497.13;;;8.59;55.60
48156;BME280;35568;48.104;11.782;2022-11-04T11:21:07;94503.33;;;8.68;55.26
48156;BME280;35568;48.104;11.782;2022-11-04T11:23:38;94510.66;;;8.66;54.38
48156;BME280;35568;48.104;11.782;2022-11-04T11:26:07;94516.06;;;8.38;55.01
48156;BME280;35568;48.104;11.782;2022-11-04T11:28:35;94516.20;;;8.83;54.74
48156;BME280;35568;48.104;11.782;2022-11-04T11:31:02;94519.24;;;8.89;54.93
48156;BME280;35568;48.104;11.782;2022-11-04T11:33:32;94522.78;;;8.86;55.02
48156;BME280;35568;48.104;11.782;2022-11-04T11:36:03;94528.38;;;8.69;55.43
48156;BME280;35568;48.104;11.782;2022-11-04T11:38:33;94530.03;;;8.50;55.92
48156;BME280;35568;48.104;11.782;2022-11-04T11:41:05;94532.20;;;8.63;55.89
48156;BME280;35568;48.104;11.782;2022-11-04T11:43:34;94527.51;;;8.79;55.67
48156;BME280;35568;48.104;11.782;2022-11-04T11:46:02;94520.83;;;8.48;55.92
48156;BME280;35568;48.104;11.782;2022-11-04T11:48:32;94514.40;;;8.79;55.69
48156;BME280;35568;48.104;11.782;2022-11-04T11:51:04;94521.94;;;8.67;55.89
48156;BME280;35568;48.104;11.782;2022-11-04T11:53:33;94526.76;;;8.55;56.43
48156;BME280;35568;48.104;11.782;2022-11-04T11:56:12;94528.40;;;8.55;56.15
48156;BME280;35568;48.104;11.782;2022-11-04T11:58:45;94527.81;;;8.70;56.18
48156;BME280;35568;48.104;11.782;2022-11-04T12:01:15;94527.39;;;8.73;56.17
48156;BME280;35568;48.104;11.782;2022-11-04T12:03:47;94521.35;;;8.54;55.99
48156;BME280;35568;48.104;11.782;2022-11-04T12:06:23;94519.24;;;8.53;56.21
48156;BME280;35568;48.104;11.782;2022-11-04T12:09:03;94525.26;;;8.42;56.64
48156;BME280;35568;48.104;11.782;2022-11-04T12:11:39;94528.71;;;8.21;56.16
48156;BME280;35568;48.104;11.782;2022-11-04T12:14:14;94532.89;;;8.50;56.71
48156;BME280;35568;48.104;11.782;2022-11-04T12:16:49;94531.35;;;7.82;56.43
48156;BME280;35568;48.104;11.782;2022-11-04T12:19:29;94530.98;;;8.39;56.13
48156;BME280;35568;48.104;11.782;2022-11-04T12:22:04;94526.78;;;8.25;55.71
48156;BME280;35568;48.104;11.782;2022-11-04T12:24:42;94518.64;;;8.49;54.99
48156;BME280;35568;48.104;11.782;2022-11-04T12:27:17;94508.50;;;8.36;54.88
48156;BME280;35568;48.104;11.782;2022-11-04T12:30:00;94502.75;;;8.32;55.30
48156;BME280;35568;48.104;11.782;2022-11-04T12:32:36;94505.84;;;8.18;54.12
48156;BME280;35568;48.104;11.782;2022-11-04T12:35:19;94514.28;;;8.15;54.50
48156;BME280;35568;48.104;11.782;2022-11-04T12:37:56;94518.12;;;8.39;54.14
48156;BME280;35568;48.104;11.782;2022-11-04T12:40:30;94530.12;;;8.18;54.03
48156;BME280;35568;48.104;11.782;2022-11-04T12:43:14;94550.78;;;8.21;54.22
48156;BME280;35568;48.104;11.782;2022-11-04T12:45:51;94559.59;;;8.49;55.44
48156;BME280;35568;48.104;11.782;2022-11-04T12:48:32;94564.62;;;8.04;54.72
48156;BME280;35568;48.104;11.782;2022-11-04T12:51:05;94567.46;;;8.21;54.89
48156;BME280;35568;48.104;11.782;2022-11-04T12:53:47;94564.97;;;8.27;54.84
48156;BME280;35568;48.104;11.782;2022-11-04T12:56:19;94560.08;;;8.08;54.77
48156;BME280;35568;48.104;11.782;2022-11-04T12:59:03;94559.22;;;8.41;54.72
48156;BME280;35568;48.104;11.782;2022-11-04T13:01:39;94556.80;;;8.08;54.85
48156;BME280;35568;48.104;11.782;2022-11-04T13:04:10;94560.79;;;8.24;54.10
48156;BME280;35568;48.104;11.782;2022-11-04T13:06:41;94562.00;;;8.34;54.67
48156;BME280;35568;48.104;11.782;2022-11-04T13:09:12;94563.62;;;8.28;53.90
48156;BME280;35568;48.104;11.782;2022-11-04T13:11:45;94561.03;;;8.33;54.28
48156;BME280;35568;48.104;11.782;2022-11-04T13:14:19;94562.49;;;8.45;53.90
48156;BME280;35568;48.104;11.782;2022-11-04T13:16:52;94561.80;;;8.29;53.17
48156;BME280;35568;48.104;11.782;2022-11-04T13:19:23;94565.00;;;7.98;53.70